• Join FlightAware (Why Join?)
  • Login
  • US Flag 
10:38AM EST


 

Airport Tracker/Info


-or-


 

Live Flight TrackerFlight Track Log ✈ VIR19 ✈ 09-Mar-2014 ✈ EGLL / LHR - KSFO

Flight Track Log - Related Links

Times and Time Zones

All times are in EDT time to prevent confusion due to time zone crossing. See the VIR19 flight status page for this flight to view local times or setup timezone preferences in your user account.

Time Position Orientation Groundspeed Altitude Reporting Facility
EDT Latitude Longitude Course Direction KTS MPH feet Rate Location/Type
07:27AM 51.4779 -0.5041 270° West 182 209 700  Level FlightAware ADS-B (EGLF / FAB)
07:27AM 51.4777 -0.5339 269° West 183 211 1,300 1,680 Climbing FlightAware ADS-B
07:28AM 51.4779 -0.5492 274° West 188 216 1,600 2,280 Climbing FlightAware ADS-B
07:28AM 51.4780 -0.5492 285° West 195 224 1,800 1,980 Climbing FlightAware ADS-B (EGKB / BQH)
07:28AM 51.4793 -0.5589 283° West 193 222 1,800 720 Level FlightAware ADS-B
07:28AM 51.4803 -0.5631 294° West 203 234 1,900 1,680 Climbing FlightAware ADS-B
07:28AM 51.4817 -0.5672 297° West 206 237 2,000 840 Climbing FlightAware ADS-B
07:28AM 51.4868 -0.5826 299° West 222 255 2,100 480 Climbing FlightAware ADS-B
07:28AM 51.4857 -0.5798 298° West 222 255 2,100 1,560 Level FlightAware ADS-B (EGKB / BQH)
07:28AM 51.4950 -0.6049 300° West 235 270 2,500 1,500 Climbing FlightAware ADS-B
07:28AM 51.4942 -0.6034 300° West 237 273 2,500 1,080 Level FlightAware ADS-B (EGLF / FAB)
07:28AM 51.5040 -0.6300 299° West 249 287 2,800 960 Climbing FlightAware ADS-B
07:29AM 51.5093 -0.6467 296° West 255 293 2,900 780 Climbing FlightAware ADS-B (EGHO)
07:29AM 51.5124 -0.6569 298° West 263 303 3,000 960 Climbing FlightAware ADS-B
07:29AM 51.5166 -0.6691 300° West 270 311 3,100 1,200 Climbing FlightAware ADS-B
07:29AM 51.5183 -0.6725 305° West 274 315 3,200 1,980 Climbing FlightAware ADS-B
07:29AM 51.5208 -0.6775 306° West 275 316 3,300 1,500 Climbing FlightAware ADS-B
07:29AM 51.5250 -0.6855 313° West 281 323 3,400 960 Climbing FlightAware ADS-B (EGLF / FAB)
07:29AM 51.5260 -0.6871 313° West 281 323 3,400 1,200 Level FlightAware ADS-B
07:29AM 51.5294 -0.6928 317° Northwest 285 328 3,500 840 Climbing FlightAware ADS-B
07:29AM 51.5328 -0.6969 323° Northwest 292 336 3,500 960 Level FlightAware ADS-B
07:29AM 51.5359 -0.7005 328° Northwest 297 342 3,600 840 Climbing FlightAware ADS-B (EGLF / FAB)
07:29AM 51.5408 -0.7049 331° Northwest 300 345 3,600 840 Level FlightAware ADS-B
07:29AM 51.5434 -0.7069 337° Northwest 305 351 3,700 1,500 Climbing FlightAware ADS-B
07:29AM 51.5462 -0.7088 336° Northwest 305 351 3,700 1,200 Level FlightAware ADS-B
07:29AM 51.5511 -0.7120 340° North 307 353 3,800 1,980 Climbing FlightAware ADS-B
07:29AM 51.5545 -0.7133 344° North 310 357 3,900 3,000 Climbing FlightAware ADS-B (EPWR / WRO)
07:29AM 51.5567 -0.7145 347° North 311 358 4,000 1,980 Climbing FlightAware ADS-B
07:30AM 51.5664 -0.7169 356° North 314 361 4,200 1,800 Climbing FlightAware ADS-B
07:30AM 51.5714 -0.7172 359° North 316 364 4,300 2,520 Climbing FlightAware ADS-B
07:30AM 51.5774 -0.7169 North 317 365 4,500 2,520 Climbing FlightAware ADS-B
07:30AM 51.5664 -0.7169 North 319 367 4,600 1,980 Climbing FlightAware ADS-B
07:30AM 51.5858 -0.7150 11° North 320 368 4,700 1,980 Climbing FlightAware ADS-B
07:30AM 51.5902 -0.7134 14° North 321 369 4,800 3,000 Climbing FlightAware ADS-B
07:30AM 51.5911 -0.7128 13° North 319 367 4,900 2,640 Climbing FlightAware ADS-B
07:30AM 51.6037 -0.7067 321° Northwest 290 334 5,200 2,160 Climbing FlightAware ADS-B (EGWE)
07:30AM 51.6067 -0.7052 17° North 322 371 5,300 1,980 Climbing FlightAware ADS-B (EGLC / LCY)
07:30AM 51.6113 -0.7033 16° North 323 372 5,400 2,400 Climbing FlightAware ADS-B
07:30AM 51.6214 -0.6989 13° North 323 372 5,700 2,160 Climbing FlightAware ADS-B
07:30AM 51.6279 -0.6970 10° North 323 372 5,800 2,640 Climbing FlightAware ADS-B
07:30AM 51.6360 -0.6950 North 324 373 6,100 2,640 Climbing FlightAware ADS-B
07:30AM 51.6376 -0.6948 North 323 372 6,200 1,500 Climbing FlightAware ADS-B (EPWR / WRO)
07:31AM 51.6468 -0.6941 North 323 372 6,300  Climbing FlightAware ADS-B
07:31AM 51.6406 -0.6945 North 324 373 6,200 3,600 Descending FlightAware ADS-B
07:31AM 51.6547 -0.6941 360° North 321 369 6,600 6,000 Climbing FlightAware ADS-B
07:31AM 51.6556 -0.6940 360° North 321 369 6,600 1,260 Level FlightAware ADS-B
07:31AM 51.6757 -0.6952 357° North 323 372 6,900 1,380 Climbing FlightAware ADS-B
07:31AM 51.6802 -0.6956 357° North 323 372 7,000 780 Climbing FlightAware ADS-B (EGLC / LCY)
07:31AM 51.6981 -0.6976 356° North 324 373 7,100 360 Climbing FlightAware ADS-B
07:31AM 51.7036 -0.6982 356° North 325 374 7,100  Level FlightAware ADS-B (EGLC / LCY)
07:31AM 51.7108 -0.6990 357° North 325 374 7,100 -600 Level FlightAware ADS-B
07:31AM 51.7187 -0.6993 North 326 375 7,000 -780 Descending FlightAware ADS-B
07:31AM 51.7234 -0.6990 North 326 375 7,000 -780 Level FlightAware ADS-B
07:31AM 51.7312 -0.6979 North 326 375 6,900 -600 Descending FlightAware ADS-B
07:32AM 51.7382 -0.6956 13° North 317 365 6,900  Level FlightAware ADS-B (EGHO)
07:32AM 51.7479 -0.6916 15° North 323 372 6,900  Level FlightAware ADS-B
07:32AM 51.7429 -0.6940 14° North 323 372 6,900 960 Level FlightAware ADS-B (EGKB / BQH)
07:32AM 51.7555 -0.6885 15° North 322 371 7,000 540 Climbing FlightAware ADS-B (EGLF / FAB)
07:32AM 51.7691 -0.6824 15° North 320 368 7,000  Level FlightAware ADS-B (EGLC / LCY)
07:32AM 51.7739 -0.6806 14° North 320 368 7,000  Level FlightAware ADS-B
07:32AM 51.7759 -0.6800 14° North 320 368 7,000  Level FlightAware ADS-B
07:32AM 51.7978 -0.6715 13° North 320 368 7,000  Level FlightAware ADS-B
07:32AM 51.8183 -0.6634 13° North 321 369 7,000  Level FlightAware ADS-B (EPWR / WRO)
07:32AM 51.8203 -0.6629 13° North 321 369 7,000  Level FlightAware ADS-B
07:33AM 51.8415 -0.6550 13° North 323 372 7,000  Level FlightAware ADS-B (EGLF / FAB)
07:33AM 51.8675 -0.6454 13° North 318 366 7,000  Level FlightAware ADS-B
07:33AM 51.8690 -0.6449 13° North 319 367 7,000 1,500 Level FlightAware ADS-B
07:33AM 51.8895 -0.6373 13° North 321 369 7,400 1,740 Climbing FlightAware ADS-B
07:33AM 51.8923 -0.6361 13° North 321 369 7,500 2,400 Climbing FlightAware ADS-B
07:34AM 51.9117 -0.6291 13° North 325 374 8,000 1,980 Climbing FlightAware ADS-B
07:34AM 51.9140 -0.6281 13° North 325 374 8,000 1,860 Level FlightAware ADS-B (EGLF / FAB)
07:34AM 51.9361 -0.6195 14° North 329 379 8,500 1,860 Climbing FlightAware ADS-B
07:34AM 51.9418 -0.6178 14° North 332 382 8,600 1,500 Climbing FlightAware ADS-B (EGLF / FAB)
07:34AM 51.9596 -0.6104 14° North 335 386 8,900 1,500 Climbing FlightAware ADS-B
07:34AM 51.9672 -0.6072 14° North 341 392 9,000 1,380 Climbing FlightAware ADS-B (EGLC / LCY)
07:34AM 51.9794 -0.6021 14° North 344 396 9,200 1,260 Climbing FlightAware ADS-B
07:34AM 51.9893 -0.5987 North 346 398 9,300 1,500 Climbing FlightAware ADS-B
07:34AM 51.9697 -0.6059 North 346 398 9,400 1,980 Climbing FlightAware ADS-B
07:34AM 51.9989 -0.5975 North 346 398 9,500 840 Climbing FlightAware ADS-B
07:35AM 52.0040 -0.5975 360° North 347 399 9,500 1,200 Level FlightAware ADS-B
07:35AM 52.0138 -0.5988 355° North 347 399 9,700 1,800 Climbing FlightAware ADS-B
07:35AM 52.0194 -0.6001 350° North 347 399 9,800 1,200 Climbing FlightAware ADS-B
07:35AM 52.0227 -0.6017 360° North 339 390 9,800 960 Level FlightAware ADS-B (EGHO)
07:35AM 52.0288 -0.6037 344° North 345 397 9,900 2,400 Climbing FlightAware ADS-B
07:35AM 52.0275 -0.6037 342° North 345 397 10,000 1,980 Climbing FlightAware ADS-B (EGWE)
07:35AM 52.0372 -0.6090 337° Northwest 342 394 10,100 900 Climbing FlightAware ADS-B
07:35AM 52.0476 -0.6189 328° Northwest 340 391 10,200 840 Climbing FlightAware ADS-B
07:35AM 52.0565 -0.6294 323° Northwest 342 394 10,300 840 Climbing FlightAware ADS-B
07:35AM 52.0571 -0.6293 323° Northwest 343 395 10,300 780 Level FlightAware ADS-B
07:35AM 52.0745 -0.6524 320° Northwest 351 404 10,500 960 Climbing FlightAware ADS-B
07:36AM 52.0883 -0.6717 318° Northwest 352 405 10,700 780 Climbing FlightAware ADS-B (EGHO)
07:36AM 52.1039 -0.6933 320° Northwest 371 427 10,800 840 Climbing FlightAware ADS-B
07:36AM 52.1159 -0.7089 324° Northwest 382 440 11,000 840 Climbing FlightAware ADS-B
07:36AM 52.1441 -0.7395 329° Northwest 399 459 11,200 900 Climbing FlightAware ADS-B
07:36AM 52.1464 -0.7410 329° Northwest 395 455 11,300 1,260 Climbing FlightAware ADS-B (EGHO)
07:36AM 52.1670 -0.7605 331° Northwest 410 472 11,500 900 Climbing FlightAware ADS-B
07:36AM 52.1670 -0.7605 331° Northwest 403 464 11,500 1,140 Level FlightAware ADS-B (EGHO)
07:37AM 52.2191 -0.8043 333° Northwest 426 490 12,100 1,200 Climbing FlightAware ADS-B
07:37AM 52.2260 -0.8102 333° Northwest 430 495 12,200 1,680 Climbing FlightAware ADS-B (EGWE)
07:37AM 52.2634 -0.8395 333° Northwest 436 502 12,900 1,500 Climbing FlightAware ADS-B
07:37AM 52.2761 -0.8497 334° Northwest 438 504 12,900 2,160 Level FlightAware ADS-B
07:38AM 52.3239 -0.8898 333° Northwest 444 511 14,000 1,740 Climbing FlightAware ADS-B (EGLF / FAB)
07:38AM 52.3617 -0.9200 333° Northwest 444 511 14,300 1,380 Climbing FlightAware ADS-B
07:38AM 52.3714 -0.9290 333° Northwest 448 516 14,600 1,800 Climbing FlightAware ADS-B (EGLF / FAB)
07:39AM 52.3954 -0.9473 333° Northwest 449 517 14,900 1,680 Climbing FlightAware ADS-B
07:39AM 52.4191 -0.9674 333° Northwest 449 517 15,300 1,740 Climbing FlightAware ADS-B
07:39AM 52.4285 -0.9750 333° Northwest 454 522 15,800 1,740 Climbing FlightAware ADS-B (EGKB / BQH)
07:39AM 52.4765 -1.0155 333° Northwest 454 522 16,200 1,800 Climbing FlightAware ADS-B
07:39AM 52.4802 -1.0185 333° Northwest 450 518 16,200 2,100 Level FlightAware ADS-B (EGHO)
07:40AM 52.5140 -1.0468 333° Northwest 458 527 16,900 2,040 Climbing FlightAware ADS-B
07:40AM 52.5347 -1.0639 333° Northwest 456 525 17,200 1,500 Climbing FlightAware ADS-B
07:40AM 52.5356 -1.0640 333° Northwest 456 525 17,200 2,520 Level FlightAware ADS-B
07:40AM 52.5615 -1.0858 334° Northwest 456 525 17,800 1,860 Climbing FlightAware ADS-B
07:40AM 52.5915 -1.1112 333° Northwest 459 528 18,100 1,440 Climbing FlightAware ADS-B
07:41AM 52.6220 -1.1365 333° Northwest 458 527 18,600 2,400 Climbing FlightAware ADS-B
07:41AM 52.6492 -1.1600 333° Northwest 453 521 19,300 2,280 Climbing FlightAware ADS-B
07:41AM 52.6887 -1.1930 333° Northwest 455 524 19,900 3,180 Climbing FlightAware ADS-B
07:41AM 52.6966 -1.1993 333° Northwest 449 517 20,700 2,460 Climbing FlightAware ADS-B (EGGP / LPL)
07:42AM 52.7517 -1.2458 333° Northwest 446 513 21,500 1,320 Climbing FlightAware ADS-B (EGCD)
07:42AM 52.7787 -1.2676 333° Northwest 451 519 21,700 1,560 Climbing FlightAware ADS-B
07:42AM 52.8230 -1.3054 333° Northwest 454 522 22,400 1,500 Climbing FlightAware ADS-B
07:43AM 52.8433 -1.3229 332° Northwest 457 526 22,600 1,680 Climbing FlightAware ADS-B
07:43AM 52.8600 -1.3372 332° Northwest 451 519 23,000 2,280 Climbing FlightAware ADS-B (EGNR / CEG)
07:43AM 52.8705 -1.3452 332° Northwest 451 519 23,100 1,680 Climbing FlightAware ADS-B
07:43AM 52.8848 -1.3580 333° Northwest 461 531 23,400 1,680 Climbing FlightAware ADS-B (EGCD)
07:43AM 52.8961 -1.3677 333° Northwest 452 520 23,500 2,160 Climbing FlightAware ADS-B
07:43AM 52.9096 -1.3789 332° Northwest 456 525 23,800 2,100 Climbing FlightAware ADS-B
07:43AM 52.9286 -1.3952 332° Northwest 457 526 24,100 1,800 Climbing FlightAware ADS-B
07:43AM 52.9480 -1.4114 332° Northwest 458 527 24,400 1,740 Climbing FlightAware ADS-B
07:44AM 52.9578 -1.4195 332° Northwest 464 534 24,600 2,400 Climbing FlightAware ADS-B
07:44AM 52.9765 -1.4356 332° Northwest 456 525 25,000 2,220 Climbing FlightAware ADS-B
07:44AM 52.9928 -1.4503 333° Northwest 465 535 25,200 1,860 Climbing FlightAware ADS-B
07:44AM 53.0147 -1.4683 333° Northwest 468 539 26,100 1,920 Climbing FlightAware ADS-B (EGGP / LPL)
07:44AM 53.0520 -1.4994 333° Northwest 467 537 26,200 1,680 Climbing FlightAware ADS-B
07:45AM 53.1045 -1.5456 333° Northwest 471 542 27,000 1,620 Climbing FlightAware ADS-B (EGCD)
07:45AM 53.1154 -1.5539 333° Northwest 471 542 27,100 1,200 Climbing FlightAware ADS-B
07:45AM 53.1320 -1.5689 332° Northwest 472 543 27,300 1,380 Climbing FlightAware ADS-B
07:45AM 53.1650 -1.5972 332° Northwest 475 547 27,700 1,560 Climbing FlightAware ADS-B
07:45AM 53.1800 -1.6091 333° Northwest 476 548 27,900 1,260 Climbing FlightAware ADS-B
07:46AM 53.1877 -1.6157 332° Northwest 477 549 28,000 1,620 Climbing FlightAware ADS-B
07:46AM 53.2019 -1.6293 332° Northwest 472 543 28,200 1,260 Climbing FlightAware ADS-B
07:46AM 53.2191 -1.6428 332° Northwest 479 551 28,300 1,200 Climbing FlightAware ADS-B
07:46AM 53.2412 -1.6633 332° Northwest 476 548 28,600 1,260 Climbing FlightAware ADS-B (EGCB)
07:46AM 53.2478 -1.6686 333° Northwest 483 556 28,600 900 Level FlightAware ADS-B
07:46AM 53.2753 -1.6927 332° Northwest 486 559 28,900 720 Climbing FlightAware ADS-B
07:47AM 53.3097 -1.7222 333° Northwest 490 564 29,000 180 Climbing FlightAware ADS-B
07:47AM 53.3353 -1.7448 332° Northwest 491 565 29,000 360 Level FlightAware ADS-B
07:47AM 53.3736 -1.7763 333° Northwest 493 567 29,200 900 Climbing FlightAware ADS-B
07:47AM 53.4070 -1.8064 332° Northwest 499 574 29,500 900 Climbing FlightAware ADS-B (EGCD)
07:48AM 53.4510 -1.8441 333° Northwest 503 579 29,800 780 Climbing FlightAware ADS-B
07:48AM 53.4687 -1.8604 333° Northwest 506 582 29,900 780 Climbing FlightAware ADS-B (EGXU / HRT)
07:48AM 53.4812 -1.8715 332° Northwest 508 585 30,000 840 Climbing FlightAware ADS-B (EGGP / LPL)
07:48AM 53.4979 -1.8860 333° Northwest 511 588 30,100 660 Climbing FlightAware ADS-B (EGCW)
07:48AM 53.5127 -1.8982 335° Northwest 517 595 30,200 480 Climbing FlightAware ADS-B (EGCC / MAN)
07:48AM 53.5246 -1.9066 333° Northwest 510 587 30,200 540 Level FlightAware ADS-B
07:49AM 53.5662 -1.9368 338° Northwest 524 603 30,400 540 Climbing FlightAware ADS-B
07:49AM 53.5732 -1.9414 337° Northwest 524 603 30,400 840 Level FlightAware ADS-B
07:49AM 53.5810 -1.9478 338° Northwest 525 604 30,500 1,020 Climbing FlightAware ADS-B (EGNR / CEG)
07:49AM 53.6504 -1.9964 337° Northwest 524 603 31,000 480 Climbing FlightAware ADS-B
07:50AM 53.7191 -2.0455 337° Northwest 522 601 31,000  Level FlightAware ADS-B
07:50AM 53.7878 -2.0949 337° Northwest 521 600 31,000  Level FlightAware ADS-B (EGXU / HRT)
07:51AM 53.8529 -2.1399 338° Northwest 520 598 31,000  Level FlightAware ADS-B (EGCB)
07:51AM 53.9279 -2.1929 337° Northwest 519 597 31,000  Level FlightAware ADS-B (EGNT / NCL)
07:52AM 53.9941 -2.2406 337° Northwest 517 595 31,000  Level FlightAware ADS-B (EGXU / HRT)
07:52AM 54.0266 -2.2649 336° Northwest 509 586 31,000  Level FlightAware ADS-B (KECP)
07:52AM 54.0350 -2.2714 335° Northwest 515 593 31,000  Level FlightAware ADS-B (KECP)
07:53AM 54.0969 -2.3223 334° Northwest 513 590 31,000  Level FlightAware ADS-B (EGCD)
07:53AM 54.1123 -2.3350 335° Northwest 515 593 31,000 120 Level FlightAware ADS-B (KECP)
07:53AM 54.1756 -2.3896 333° Northwest 515 593 31,100 660 Climbing FlightAware ADS-B (EGXU / HRT)
07:54AM 54.2190 -2.4259 334° Northwest 515 593 31,700 1,080 Climbing FlightAware ADS-B (EGCC / MAN)
07:54AM 54.2826 -2.4803 333° Northwest 509 586 32,000 360 Climbing FlightAware ADS-B (KECP)
07:55AM 54.3486 -2.5363 334° Northwest 515 593 32,000  Level FlightAware ADS-B (EGXU / HRT)
07:55AM 54.4123 -2.5900 334° Northwest 513 590 32,000  Level FlightAware ADS-B (EGPH / EDI)
07:56AM 54.4844 -2.6510 334° Northwest 510 587 32,000  Level FlightAware ADS-B (EGNT / NCL)
07:56AM 54.5498 -2.7064 334° Northwest 512 589 32,000  Level FlightAware ADS-B (EGNT / NCL)
07:57AM 54.6134 -2.7606 334° Northwest 511 588 32,000  Level FlightAware ADS-B
07:57AM 54.6530 -2.7949 333° Northwest 502 578 32,000  Level FlightAware ADS-B (KECP)
07:57AM 54.6848 -2.8220 333° Northwest 501 577 32,000  Level FlightAware ADS-B (KECP)
07:57AM 54.7094 -2.8418 333° Northwest 501 577 32,000  Level FlightAware ADS-B (KECP)
07:58AM 54.7725 -2.8959 334° Northwest 507 583 32,000  Level FlightAware ADS-B (KECP)
07:58AM 54.8357 -2.9520 334° Northwest 506 582 32,000  Level FlightAware ADS-B (EGPN / DND)
07:59AM 54.9046 -3.0120 333° Northwest 507 583 32,000  Level FlightAware ADS-B (EGAA / BFS)
08:00AM 54.9781 -3.0757 333° Northwest 507 583 32,000  Level FlightAware ADS-B (KECP)
08:00AM 55.0553 -3.1437 333° Northwest 509 586 32,000  Level FlightAware ADS-B
08:01AM 55.1247 -3.2046 333° Northwest 509 586 32,000  Level FlightAware ADS-B (EGAA / BFS)
08:01AM 55.2051 -3.2749 333° Northwest 508 585 32,000  Level FlightAware ADS-B
08:02AM 55.2811 -3.3419 333° Northwest 508 585 32,000  Level FlightAware ADS-B
08:03AM 55.3515 -3.4052 333° Northwest 509 586 32,000  Level FlightAware ADS-B (EGAA / BFS)
08:03AM 55.4270 -3.4725 333° Northwest 508 585 32,000  Level FlightAware ADS-B
08:04AM 55.4907 -3.5289 333° Northwest 508 585 32,000  Level FlightAware ADS-B
08:04AM 55.5608 -3.5929 333° Northwest 508 585 32,000  Level FlightAware ADS-B (EGPH / EDI)
08:05AM 55.6354 -3.6591 333° Northwest 510 587 32,000  Level FlightAware ADS-B (EGPK / PIK)
08:05AM 55.6966 -3.7163 333° Northwest 510 587 32,000  Level FlightAware ADS-B (EGAA / BFS)
08:06AM 55.7656 -3.7794 333° Northwest 511 588 32,000  Level FlightAware ADS-B (EGPH / EDI)
08:06AM 55.8290 -3.8370 333° Northwest 511 588 32,000  Level FlightAware ADS-B (EGAA / BFS)
08:07AM 55.8983 -3.9007 333° Northwest 511 588 32,000  Level FlightAware ADS-B (EGPK / PIK)
08:07AM 55.9616 -3.9588 333° Northwest 510 587 32,000  Level FlightAware ADS-B (EGAA / BFS)
08:08AM 56.0286 -4.0207 333° Northwest 512 589 32,000  Level FlightAware ADS-B
08:08AM 56.0951 -4.0831 333° Northwest 512 589 32,000  Level FlightAware ADS-B (EGAA / BFS)
08:09AM 56.1701 -4.1533 333° Northwest 511 588 32,000  Level FlightAware ADS-B (EGPH / EDI)
08:10AM 56.2338 -4.2131 333° Northwest 512 589 32,000  Level FlightAware UK
08:10AM 56.2668 -4.2438 332° Northwest 510 587 32,000  Level FlightAware ADS-B (EGPG)
08:10AM 56.3290 -4.3029 332° Northwest 510 587 32,000  Level FlightAware ADS-B (EGPG)
08:11AM 56.3951 -4.3640 332° Northwest 512 589 32,000  Level FlightAware ADS-B (EGPH / EDI)
08:11AM 56.4593 -4.4257 332° Northwest 512 589 32,000  Level FlightAware ADS-B
08:12AM 56.5215 -4.4853 332° Northwest 513 590 32,000  Level FlightAware ADS-B (EGPH / EDI)
08:13AM 56.6061 -4.5656 332° Northwest 514 592 32,000  Level FlightAware ADS-B (EGPH / EDI)
08:13AM 56.6728 -4.6307 332° Northwest 514 592 32,000  Level FlightAware UK
08:13AM 56.7032 -4.6581 332° Northwest 512 589 32,000  Level FlightAware ADS-B (EGPD / ABZ)
08:14AM 56.7952 -4.7489 332° Northwest 510 587 32,000  Level FlightAware ADS-B
08:15AM 56.8602 -4.8125 332° Northwest 510 587 32,000  Level FlightAware UK
08:15AM 56.8764 -4.8278 332° Northwest 510 587 32,000  Level FlightAware ADS-B
08:15AM 56.9432 -4.8928 332° Northwest 510 587 32,000  Level FlightAware ADS-B (EGPD / ABZ)
08:16AM 57.0047 -4.9538 332° Northwest 510 587 32,000  Level FlightAware ADS-B (EGPH / EDI)
08:16AM 57.0853 -5.0334 332° Northwest 509 586 32,000  Level FlightAware ADS-B
08:17AM 57.1569 -5.1032 331° Northwest 508 585 32,000  Level FlightAware ADS-B (EGPH / EDI)
08:18AM 57.2359 -5.1917 328° Northwest 503 579 32,000  Level FlightAware ADS-B (EGPH / EDI)
08:18AM 57.3006 -5.2664 328° Northwest 504 580 32,000  Level FlightAware UK
08:18AM 57.3185 -5.2864 329° Northwest 503 579 32,000  Level FlightAware ADS-B (EGPH / EDI)
08:19AM 57.4021 -5.3805 329° Northwest 504 580 32,000  Level FlightAware ADS-B (EGPH / EDI)
08:20AM 57.4794 -5.4684 329° Northwest 506 582 32,000  Level FlightAware UK
08:20AM 57.4931 -5.4838 329° Northwest 505 581 32,000  Level FlightAware ADS-B (EGPH / EDI)
08:20AM 57.5764 -5.5765 329° Northwest 507 583 32,000  Level FlightAware ADS-B
08:21AM 57.6562 -5.6677 329° Northwest 506 582 32,000  Level FlightAware ADS-B
08:22AM 57.7385 -5.7635 329° Northwest 505 581 32,000  Level FlightAware ADS-B
08:22AM 57.7524 -5.7795 329° Northwest 505 581 32,000  Level FlightAware ADS-B (EGPH / EDI)
08:23AM 57.8342 -5.8735 328° Northwest 504 580 32,000  Level FlightAware ADS-B (EGPH / EDI)
08:23AM 57.9271 -5.9813 328° Northwest 503 579 32,000  Level FlightAware ADS-B
08:23AM 57.9333 -5.9889 328° Northwest 504 580 32,000  Level FlightAware UK
08:24AM 57.9865 -6.0505 328° Northwest 503 579 32,000  Level FlightAware ADS-B
08:25AM 58.0666 -6.1451 328° Northwest 501 577 32,000  Level FlightAware ADS-B
08:25AM 58.1458 -6.2374 328° Northwest 499 574 32,000  Level FlightAware ADS-B
08:26AM 58.2390 -6.3490 328° Northwest 500 575 32,000  Level FlightAware UK
08:27AM 58.3089 -6.4323 328° Northwest 500 575 32,000  Level FlightAware UK
08:27AM 58.3671 -6.5025 328° Northwest 502 578 32,000  Level FlightAware UK
08:28AM 58.4258 -6.5729 328° Northwest 502 578 32,000  Level FlightAware UK
08:28AM 58.4849 -6.6437 328° Northwest 502 578 32,000  Level FlightAware UK
08:29AM 58.5437 -6.7149 328° Northwest 502 578 32,000  Level FlightAware UK
08:29AM 58.6024 -6.7863 328° Northwest 502 578 32,000  Level FlightAware UK
08:30AM 58.6610 -6.8578 328° Northwest 502 578 32,000  Level FlightAware UK
08:30AM 58.7196 -6.9295 328° Northwest 502 578 32,000  Level FlightAware UK
08:31AM 58.7780 -7.0016 327° Northwest 504 580 32,000  Level FlightAware UK
08:31AM 58.8367 -7.0740 327° Northwest 504 580 32,000  Level FlightAware UK
08:32AM 58.8954 -7.1470 327° Northwest 504 580 32,000  Level FlightAware UK
08:32AM 58.9540 -7.2201 327° Northwest 502 578 32,000  Level FlightAware UK
08:33AM 59.0125 -7.2930 327° Northwest 502 578 32,000  Level FlightAware UK
08:33AM 59.0707 -7.3660 327° Northwest 500 575 32,000  Level FlightAware UK
08:34AM 59.1287 -7.4390 327° Northwest 500 575 32,000  Level FlightAware UK
08:34AM 59.1865 -7.5124 327° Northwest 500 575 32,000  Level FlightAware UK
08:35AM 59.2442 -7.5862 327° Northwest 500 575 32,000  Level FlightAware UK
08:35AM 59.3021 -7.6604 327° Northwest 500 575 32,000  Level FlightAware UK
08:36AM 59.3600 -7.7344 327° Northwest 500 575 32,000  Level FlightAware UK
08:36AM 59.4179 -7.8084 327° Northwest 500 575 32,000  Level FlightAware UK
08:37AM 59.4868 -7.8977 327° Northwest 500 575 32,000  Level FlightAware UK
08:37AM 59.5445 -7.9727 327° Northwest 498 573 32,000  Level FlightAware UK
08:38AM 59.6019 -8.0478 327° Northwest 496 571 32,000  Level FlightAware UK
08:38AM 59.6591 -8.1227 327° Northwest 494 568 32,000  Level FlightAware UK
08:39AM 59.7160 -8.1972 327° Northwest 494 568 32,000  Level FlightAware UK
08:39AM 59.7727 -8.2723 326° Northwest 494 568 32,000  Level FlightAware UK
08:40AM 59.8294 -8.3478 326° Northwest 494 568 32,000  Level FlightAware UK
08:40AM 59.8862 -8.4236 326° Northwest 494 568 32,000  Level FlightAware UK
08:41AM 59.9428 -8.4995 326° Northwest 494 568 32,000  Level FlightAware UK
08:41AM 59.9996 -8.5754 326° Northwest 494 568 32,000  Level FlightAware UK
08:43AM 60.0970 -8.8192 309° West  Level Estimated
08:50AM 60.6411 -10.2305 309° West  Level Estimated
08:51AM 60.7176 -10.4359 307° West  Level Estimated
08:52AM 60.7937 -10.6424 307° West  Level Estimated
08:53AM 60.8696 -10.8498 307° West  Level Estimated
08:54AM 60.9451 -11.0583 307° West  Level Estimated
08:55AM 61.0203 -11.2677 307° West  Level Estimated
08:56AM 61.0952 -11.4781 306° West  Level Estimated
08:57AM 61.1698 -11.6895 306° West  Level Estimated
08:58AM 61.2440 -11.9019 306° West  Level Estimated
08:59AM 61.3179 -12.1153 306° West  Level Estimated
09:00AM 61.3914 -12.3297 306° West  Level Estimated
09:01AM 61.4647 -12.5451 305° West  Level Estimated
09:02AM 61.5375 -12.7616 305° West  Level Estimated
09:03AM 61.6101 -12.9790 305° West  Level Estimated
09:04AM 61.6822 -13.1975 305° West  Level Estimated
09:05AM 61.7541 -13.4170 305° West  Level Estimated
09:06AM 61.8256 -13.6375 305° West  Level Estimated
09:07AM 61.8967 -13.8591 304° West  Level Estimated
09:08AM 61.9674 -14.0816 304° West  Level Estimated
09:09AM 62.0379 -14.3052 304° West  Level Estimated
09:10AM 62.1079 -14.5299 304° West  Level Estimated
09:11AM 62.1776 -14.7556 304° West  Level Estimated
09:12AM 62.2469 -14.9823 303° West  Level Estimated
09:13AM 62.3158 -15.2100 303° West  Level Estimated
09:14AM 62.3844 -15.4388 303° West  Level Estimated
09:15AM 62.4526 -15.6687 303° West  Level Estimated
09:16AM 62.5204 -15.8996 303° West  Level Estimated
09:17AM 62.5878 -16.1315 302° West  Level Estimated
09:18AM 62.6549 -16.3645 302° West  Level Estimated
09:19AM 62.7215 -16.5986 302° West  Level Estimated
09:20AM 62.7878 -16.8337 302° West  Level Estimated
09:21AM 62.8536 -17.0699 302° West  Level Estimated
09:22AM 62.9191 -17.3071 301° West  Level Estimated
09:23AM 62.9842 -17.5454 301° West  Level Estimated
09:24AM 63.0489 -17.7847 301° West  Level Estimated
09:25AM 63.1131 -18.0251 301° West  Level Estimated
09:26AM 63.1770 -18.2666 300° West  Level Estimated
09:27AM 63.2404 -18.5091 300° West  Level Estimated
09:28AM 63.3034 -18.7527 300° West  Level Estimated
09:29AM 63.3660 -18.9974 300° West  Level Estimated
09:30AM 63.4282 -19.2431 300° West  Level Estimated
09:31AM 63.4900 -19.4899 299° West  Level Estimated
09:32AM 63.5513 -19.7378 299° West  Level Estimated
09:33AM 63.6122 -19.9867 299° West  Level Estimated
09:34AM 63.6727 -20.2367 299° West  Level Estimated
09:35AM 63.7328 -20.4877 298° West  Level Estimated
09:36AM 63.7924 -20.7398 298° West  Level Estimated
09:37AM 63.8515 -20.9930 298° West  Level Estimated
09:38AM 63.9102 -21.2472 298° West  Level Estimated
09:39AM 63.9685 -21.5026 298° West  Level Estimated
09:40AM 64.0263 -21.7589 297° West  Level Estimated
09:41AM 64.0837 -22.0163 297° West  Level Estimated
09:42AM 64.1406 -22.2748 297° West  Level Estimated
09:43AM 64.1971 -22.5344 297° West  Level Estimated
09:44AM 64.2530 -22.7950 296° West  Level Estimated
09:45AM 64.3086 -23.0566 296° West  Level Estimated
09:46AM 64.3636 -23.3193 296° West  Level Estimated
09:47AM 64.4182 -23.5831 296° West  Level Estimated
09:48AM 64.4723 -23.8479 295° West  Level Estimated
09:49AM 64.5259 -24.1137 295° West  Level Estimated
09:50AM 64.5791 -24.3806 295° West  Level Estimated
09:51AM 64.6317 -24.6486 295° West  Level Estimated
09:52AM 64.6839 -24.9175 295° West  Level Estimated
09:53AM 64.7356 -25.1875 294° West  Level Estimated
09:54AM 64.7868 -25.4585 294° West  Level Estimated
09:55AM 64.8375 -25.7306 294° West  Level Estimated
09:56AM 64.8877 -26.0037 294° West  Level Estimated
09:57AM 64.9374 -26.2777 293° West  Level Estimated
09:58AM 64.9866 -26.5528 293° West  Level Estimated
09:59AM 65.0353 -26.8290 293° West  Level Estimated
10:00AM 65.0834 -27.1061 293° West  Level Estimated
10:01AM 65.1311 -27.3842 292° West  Level Estimated
10:02AM 65.1782 -27.6633 292° West  Level Estimated
10:03AM 65.2249 -27.9434 292° West  Level Estimated
10:04AM 65.2710 -28.2245 292° West  Level Estimated
10:05AM 65.3165 -28.5065 291° West  Level Estimated
10:06AM 65.3616 -28.7896 291° West  Level Estimated
10:07AM 65.4061 -29.0736 291° West  Level Estimated
10:08AM 65.4501 -29.3585 290° West  Level Estimated
10:09AM 65.4935 -29.6444 290° West  Level Estimated
10:10AM 65.5364 -29.9313 290° West  Level Estimated
10:11AM 65.5788 -30.2191 290° West  Level Estimated
10:12AM 65.6206 -30.5078 289° West  Level Estimated
10:13AM 65.6618 -30.7975 289° West  Level Estimated
10:14AM 65.7026 -31.0881 289° West  Level Estimated
10:15AM 65.7427 -31.3796 289° West  Level Estimated
10:16AM 65.7823 -31.6719 288° West  Level Estimated
10:17AM 65.8214 -31.9652 288° West  Level Estimated
10:18AM 65.8598 -32.2594 288° West  Level Estimated
10:19AM 65.8978 -32.5544 288° West  Level Estimated
10:20AM 65.9351 -32.8503 287° West  Level Estimated
10:21AM 65.9719 -33.1471 287° West  Level Estimated
10:22AM 66.0081 -33.4447 287° West  Level Estimated
10:23AM 66.0437 -33.7432 287° West  Level Estimated
10:24AM 66.0787 -34.0425 286° West  Level Estimated
10:25AM 66.1132 -34.3426 286° West  Level Estimated
10:26AM 66.1471 -34.6435 286° West  Level Estimated
10:27AM 66.1804 -34.9452 285° West  Level Estimated
10:28AM 66.2131 -35.2477 285° West  Level Estimated
10:29AM 66.2452 -35.5510 285° West  Level Estimated
10:30AM 66.2767 -35.8550 285° West  Level Estimated
10:31AM 66.3076 -36.1598 284° West  Level Estimated
10:32AM 66.3380 -36.4654 284° West  Level Estimated
10:33AM 66.3677 -36.7717 284° West  Level Estimated
10:34AM 66.3968 -37.0787 283° West  Level Estimated
10:35AM 66.4253 -37.3864 283° West  Level Estimated
10:36AM 66.4533 -37.6948 283° West  Level Estimated
10:37AM 66.4806 -38.0038 283° West  Level Estimated
10:38AM 66.5073 -38.3136 282° West  Level Estimated
10:39AM 66.5333 -38.6240 282° West  Level Estimated
10:40AM 66.5588 -38.9351 282° West  Level Estimated
10:41AM 66.5836 -39.2467 281° West  Level Estimated
10:42AM 66.6079 -39.5590 281° West  Level Estimated
10:43AM 66.6315 -39.8719 281° West  Level Estimated
10:44AM 66.6545 -40.1854 281° West  Level Estimated
10:45AM 66.6768 -40.4995 280° West  Level Estimated
10:46AM 66.6985 -40.8141 280° West  Level Estimated
10:47AM 66.7196 -41.1293 280° West  Level Estimated
10:48AM 66.7401 -41.4450 279° West  Level Estimated
10:49AM 66.7599 -41.7612 279° West  Level Estimated
10:50AM 66.7792 -42.0780 279° West  Level Estimated
10:51AM 66.7977 -42.3952 279° West  Level Estimated
10:52AM 66.8157 -42.7129 278° West  Level Estimated
10:53AM 66.8329 -43.0310 278° West  Level Estimated
10:54AM 66.8496 -43.3496 278° West  Level Estimated
10:55AM 66.8656 -43.6686 277° West  Level Estimated
10:56AM 66.8810 -43.9880 277° West  Level Estimated
10:57AM 66.8957 -44.3078 277° West  Level Estimated
10:58AM 66.9098 -44.6280 277° West  Level Estimated
10:59AM 66.9232 -44.9486 276° West  Level Estimated
11:00AM 66.9360 -45.2695 276° West  Level Estimated
11:01AM 66.9482 -45.5907 276° West  Level Estimated
11:02AM 66.9596 -45.9122 275° West  Level Estimated
11:03AM 66.9705 -46.2341 275° West  Level Estimated
11:04AM 66.9807 -46.5561 275° West  Level Estimated
11:05AM 66.9902 -46.8785 274° West  Level Estimated
11:06AM 66.9991 -47.2011 274° West  Level Estimated
11:07AM 67.0073 -47.5240 274° West  Level Estimated
11:08AM 67.0149 -47.8470 274° West  Level Estimated
11:09AM 67.0218 -48.1702 273° West  Level Estimated
11:10AM 67.0281 -48.4937 273° West  Level Estimated
11:11AM 67.0337 -48.8172 273° West  Level Estimated
11:12AM 67.0386 -49.1410 272° West  Level Estimated
11:13AM 67.0429 -49.4648 272° West  Level Estimated
11:14AM 67.0465 -49.7887 272° West  Level Estimated
11:15AM 67.0495 -50.1128 271° West  Level Estimated
11:16AM 67.0518 -50.4369 271° West  Level Estimated
11:17AM 67.0535 -50.7610 271° West  Level Estimated
11:18AM 67.0545 -51.0852 271° West  Level Estimated
11:19AM 67.0548 -51.4094 270° West  Level Estimated
11:20AM 67.0545 -51.7336 270° West  Level Estimated
11:21AM 67.0536 -52.0578 270° West  Level Estimated
11:22AM 67.0519 -52.3820 269° West  Level Estimated
11:23AM 67.0496 -52.7061 269° West  Level Estimated
11:24AM 67.0467 -53.0301 269° West  Level Estimated
11:25AM 67.0431 -53.3541 269° West  Level Estimated
11:26AM 67.0388 -53.6779 268° West  Level Estimated
11:27AM 67.0339 -54.0016 268° West  Level Estimated
11:28AM 67.0283 -54.3252 268° West  Level Estimated
11:29AM 67.0221 -54.6486 267° West  Level Estimated
11:30AM 67.0152 -54.9719 267° West  Level Estimated
11:31AM 67.0076 -55.2949 267° West  Level Estimated
11:32AM 66.9994 -55.6178 266° West  Level Estimated
11:33AM 66.9906 -55.9404 266° West  Level Estimated
11:34AM 66.9811 -56.2628 266° West  Level Estimated
11:35AM 66.9709 -56.5849 266° West  Level Estimated
11:36AM 66.9601 -56.9067 265° West  Level Estimated
11:37AM 66.9486 -57.2283 265° West  Level Estimated
11:38AM 66.9365 -57.5495 265° West  Level Estimated
11:39AM 66.9238 -57.8704 264° West  Level Estimated
11:40AM 66.9104 -58.1910 264° West  Level Estimated
11:41AM 66.8963 -58.5112 264° West  Level Estimated
11:42AM 66.8816 -58.8310 263° West  Level Estimated
11:43AM 66.8663 -59.1505 263° West  Level Estimated
11:44AM 66.8503 -59.4695 263° West  Level Estimated
11:45AM 66.8337 -59.7881 263° West  Level Estimated
11:46AM 66.8164 -60.1063 262° West  Level Estimated
11:47AM 66.7985 -60.4240 262° West  Level Estimated
11:48AM 66.7800 -60.7412 262° West  Level Estimated
11:49AM 66.7608 -61.0579 261° West  Level Estimated
11:50AM 66.7408 -61.3768 261° West  Level Estimated
11:51AM 66.7202 -61.6952 261° West  Level Estimated
11:52AM 66.6989 -62.0130 261° West  Level Estimated
11:53AM 66.6770 -62.3303 260° West  Level Estimated
11:54AM 66.6545 -62.6470 260° West  Level Estimated
11:55AM 66.6313 -62.9631 260° West  Level Estimated
11:56AM 66.6075 -63.2786 259° West  Level Estimated
11:57AM 66.5830 -63.5936 259° West  Level Estimated
11:58AM 66.5580 -63.9078 259° West  Level Estimated
11:59AM 66.5323 -64.2215 259° West  Level Estimated
12:00PM 66.5059 -64.5344 258° West  Level Estimated
12:01PM 66.4790 -64.8468 258° West  Level Estimated
12:02PM 66.4514 -65.1584 258° West  Level Estimated
12:03PM 66.4232 -65.4693 257° West  Level Estimated
12:04PM 66.3944 -65.7795 257° West  Level Estimated
12:05PM 66.3650 -66.0891 257° West  Level Estimated
12:06PM 66.3350 -66.3978 257° West  Level Estimated
12:07PM 66.3043 -66.7059 256° West  Level Estimated
12:08PM 66.2731 -67.0131 256° West  Level Estimated
12:09PM 66.2412 -67.3196 256° West  Level Estimated
12:10PM 66.2087 -67.6254 255° West  Level Estimated
12:11PM 66.1757 -67.9303 255° West  Level Estimated
12:12PM 66.1420 -68.2344 255° West  Level Estimated
12:13PM 66.1078 -68.5377 255° West  Level Estimated
12:14PM 66.0729 -68.8402 254° West  Level Estimated
12:15PM 66.0375 -69.1419 254° West  Level Estimated
12:16PM 66.0014 -69.4427 254° West  Level Estimated
12:17PM 65.9648 -69.7426 253° West  Level Estimated
12:18PM 65.9276 -70.0417 253° West  Level Estimated
12:19PM 65.8899 -70.3399 253° West  Level Estimated
12:20PM 65.8515 -70.6372 253° West  Level Estimated
12:21PM 65.8126 -70.9337 252° West  Level Estimated
12:22PM 65.7731 -71.2292 252° West  Level Estimated
12:23PM 65.7330 -71.5238 252° West  Level Estimated
12:24PM 65.6924 -71.8175 252° West  Level Estimated
12:25PM 65.6512 -72.1103 251° West  Level Estimated
12:26PM 65.6094 -72.4021 251° West  Level Estimated
12:27PM 65.5671 -72.6930 251° West  Level Estimated
12:28PM 65.5242 -72.9830 250° West  Level Estimated
12:29PM 65.4808 -73.2720 250° West  Level Estimated
12:30PM 65.4369 -73.5600 250° West  Level Estimated
12:31PM 65.3924 -73.8471 250° West  Level Estimated
12:32PM 65.3473 -74.1331 249° West  Level Estimated
12:33PM 65.3017 -74.4182 249° West  Level Estimated
12:34PM 65.2556 -74.7023 249° West  Level Estimated
12:35PM 65.2089 -74.9854 249° West  Level Estimated
12:36PM 65.1617 -75.2675 248° West  Level Estimated
12:37PM 65.1140 -75.5486 248° West  Level Estimated
12:38PM 65.0657 -75.8287 248° West  Level Estimated
12:39PM 65.0170 -76.1077 248° West  Level Estimated
12:40PM 64.9677 -76.3858 247° West  Level Estimated
12:41PM 64.9179 -76.6628 247° West  Level Estimated
12:42PM 64.8676 -76.9388 247° West  Level Estimated
12:43PM 64.8167 -77.2137 247° West  Level Estimated
12:44PM 64.7654 -77.4876 246° West  Level Estimated
12:45PM 64.7136 -77.7605 246° West  Level Estimated
12:46PM 64.6612 -78.0323 246° West  Level Estimated
12:47PM 64.6084 -78.3030 246° West  Level Estimated
12:48PM 64.5551 -78.5727 245° Southwest  Level Estimated
12:49PM 64.5013 -78.8414 245° Southwest  Level Estimated
12:50PM 64.4470 -79.1090 245° Southwest  Level Estimated
12:51PM 64.3922 -79.3755 245° Southwest  Level Estimated
12:52PM 64.3369 -79.6410 244° Southwest  Level Estimated
12:53PM 64.2812 -79.9053 244° Southwest  Level Estimated
12:54PM 64.2250 -80.1687 244° Southwest  Level Estimated
12:55PM 64.1683 -80.4309 244° Southwest  Level Estimated
12:56PM 64.1111 -80.6921 243° Southwest  Level Estimated
12:57PM 64.0535 -80.9522 243° Southwest  Level Estimated
12:58PM 63.9954 -81.2112 243° Southwest  Level Estimated
12:59PM 63.9368 -81.4691 243° Southwest  Level Estimated
01:00PM 63.8778 -81.7260 243° Southwest  Level Estimated
01:01PM 63.8184 -81.9818 242° Southwest  Level Estimated
01:02PM 63.7585 -82.2365 242° Southwest  Level Estimated
01:03PM 63.6981 -82.4901 242° Southwest  Level Estimated
01:04PM 63.6373 -82.7426 242° Southwest  Level Estimated
01:05PM 63.5761 -82.9940 241° Southwest  Level Estimated
01:06PM 63.5144 -83.2444 241° Southwest  Level Estimated
01:07PM 63.4523 -83.4937 241° Southwest  Level Estimated
01:08PM 63.3897 -83.7419 241° Southwest  Level Estimated
01:09PM 63.3267 -83.9890 241° Southwest  Level Estimated
01:10PM 63.2633 -84.2350 240° Southwest  Level Estimated
01:11PM 63.1995 -84.4800 240° Southwest  Level Estimated
01:12PM 63.1353 -84.7238 240° Southwest  Level Estimated
01:13PM 63.0706 -84.9666 240° Southwest  Level Estimated
01:14PM 63.0056 -85.2083 239° Southwest  Level Estimated
01:15PM 62.9401 -85.4490 239° Southwest  Level Estimated
01:16PM 62.8742 -85.6885 239° Southwest  Level Estimated
01:17PM 62.8079 -85.9270 239° Southwest  Level Estimated
01:18PM 62.7412 -86.1644 239° Southwest  Level Estimated
01:19PM 62.6741 -86.4007 238° Southwest  Level Estimated
01:20PM 62.6066 -86.6360 238° Southwest  Level Estimated
01:21PM 62.5387 -86.8702 238° Southwest  Level Estimated
01:22PM 62.4704 -87.1033 238° Southwest  Level Estimated
01:23PM 62.4018 -87.3353 238° Southwest  Level Estimated
01:24PM 62.3327 -87.5663 237° Southwest  Level Estimated
01:25PM 62.2633 -87.7962 237° Southwest  Level Estimated
01:26PM 62.1935 -88.0251 237° Southwest  Level Estimated
01:27PM 62.1233 -88.2529 237° Southwest  Level Estimated
01:28PM 62.0528 -88.4797 236° Southwest  Level Estimated
01:29PM 61.9818 -88.7054 236° Southwest  Level Estimated
01:30PM 61.9105 -88.9300 236° Southwest  Level Estimated
01:31PM 61.8389 -89.1536 236° Southwest  Level Estimated
01:32PM 61.7669 -89.3762 236° Southwest  Level Estimated
01:33PM 61.6945 -89.5977 235° Southwest  Level Estimated
01:34PM 61.6218 -89.8181 235° Southwest  Level Estimated
01:35PM 61.5487 -90.0376 235° Southwest  Level Estimated
01:36PM 61.4753 -90.2560 235° Southwest  Level Estimated
01:37PM 61.4015 -90.4734 235° Southwest  Level Estimated
01:38PM 61.3274 -90.6897 235° Southwest  Level Estimated
01:39PM 61.2529 -90.9050 234° Southwest  Level Estimated
01:40PM 61.1781 -91.1193 234° Southwest  Level Estimated
01:41PM 61.1029 -91.3326 234° Southwest  Level Estimated
01:42PM 61.0275 -91.5449 234° Southwest  Level Estimated
01:43PM 60.9516 -91.7561 234° Southwest  Level Estimated
01:44PM 60.8755 -91.9664 233° Southwest  Level Estimated
01:45PM 60.7990 -92.1757 233° Southwest  Level Estimated
01:46PM 60.7223 -92.3839 233° Southwest  Level Estimated
01:47PM 60.6451 -92.5912 233° Southwest  Level Estimated
01:48PM 60.5677 -92.7974 233° Southwest  Level Estimated
01:49PM 60.4900 -93.0027 233° Southwest  Level Estimated
01:50PM 60.4119 -93.2070 232° Southwest  Level Estimated
01:51PM 60.3335 -93.4103 232° Southwest  Level Estimated
01:52PM 60.2548 -93.6127 232° Southwest  Level Estimated
01:53PM 60.1759 -93.8140 232° Southwest  Level Estimated
01:54PM 60.0966 -94.0144 232° Southwest  Level Estimated
01:55PM 60.0170 -94.2139 231° Southwest  Level Estimated
01:55PM 62.3167 -102.8333 231° Southwest 470 541 36,000  Level Edmonton Center
01:56PM 59.9371 -94.4123 231° Southwest  Level Estimated
01:56PM 62.2167 -102.9833 215° Southwest 460 529 36,000  Level Edmonton Center
01:57PM 59.8569 -94.6099 231° Southwest  Level Estimated
01:57PM 62.1000 -103.2167 223° Southwest 450 518 36,000  Level Edmonton Center
01:58PM 59.7764 -94.8064 231° Southwest  Level Estimated
01:58PM 62.0000 -103.3667 215° Southwest 450 518 36,000  Level Edmonton Center
01:59PM 59.6956 -95.0021 231° Southwest  Level Estimated
01:59PM 61.9000 -103.5500 221° Southwest 450 518 36,000  Level Edmonton Center
02:00PM 59.6146 -95.1967 231° Southwest  Level Estimated
02:00PM 61.8167 -103.7333 226° Southwest 460 529 36,000  Level Edmonton Center
02:01PM 61.7167 -103.8833 215° Southwest 460 529 36,000  Level Edmonton Center
02:02PM 61.6167 -104.0667 221° Southwest 460 529 36,000  Level Edmonton Center
02:03PM 61.5167 -104.2500 221° Southwest 460 529 36,000  Level Edmonton Center
02:04PM 61.4167 -104.3833 213° Southwest 460 529 36,000  Level Edmonton Center
02:05PM 61.3167 -104.5667 221° Southwest 460 529 36,000  Level Edmonton Center
02:06PM 61.2167 -104.7500 221° Southwest 450 518 36,000  Level Edmonton Center
02:07PM 61.1167 -104.8833 213° Southwest 450 518 36,000  Level Edmonton Center
02:08PM 61.0167 -105.0667 222° Southwest 450 518 36,000  Level Edmonton Center
02:09PM 60.9000 -105.2333 215° Southwest 460 529 36,000  Level Edmonton Center
02:10PM 60.8000 -105.4167 222° Southwest 460 529 36,000  Level Edmonton Center
02:11PM 60.7000 -105.5500 213° Southwest 460 529 36,000  Level Edmonton Center
02:12PM 60.6000 -105.7167 219° Southwest 450 518 36,000  Level Edmonton Center
02:13PM 60.5000 -105.8833 219° Southwest 450 518 36,000  Level Edmonton Center
02:14PM 60.4000 -106.0167 213° Southwest 450 518 36,000  Level Edmonton Center
02:15PM 60.3000 -106.1833 220° Southwest 450 518 36,000  Level Edmonton Center
02:16PM 60.2000 -106.3500 220° Southwest 450 518 36,000  Level Edmonton Center
02:17PM 60.1000 -106.4833 214° Southwest 450 518 36,000  Level Edmonton Center
02:18PM 60.0000 -106.6500 220° Southwest 450 518 36,000  Level Edmonton Center
02:19PM 59.9000 -106.7833 214° Southwest 450 518 36,000  Level Edmonton Center
02:20PM 59.7833 -106.9500 216° Southwest 450 518 36,000  Level Edmonton Center
02:21PM 59.6833 -107.1167 220° Southwest 450 518 36,000  Level Edmonton Center
02:22PM 59.6000 -107.2333 215° Southwest 450 518 36,000  Level Edmonton Center
02:23PM 59.5000 -107.4000 220° Southwest 450 518 36,000  Level Edmonton Center
02:24PM 59.3833 -107.5667 216° Southwest 450 518 36,000  Level Edmonton Center
02:25PM 59.2833 -107.7167 217° Southwest 450 518 36,000  Level Edmonton Center
02:26PM 59.1667 -107.8333 207° Southwest 450 518 36,000  Level Edmonton Center
02:27PM 59.0667 -107.9667 214° Southwest 460 529 36,000  Level Edmonton Center
02:28PM 58.9333 -108.0833 204° Southwest 460 529 36,000  Level Edmonton Center
02:29PM 58.8333 -108.2000 211° Southwest 460 529 36,000  Level Edmonton Center
02:30PM 58.7333 -108.3333 215° Southwest 460 529 36,000  Level Edmonton Center
02:31PM 58.6000 -108.4500 205° Southwest 450 518 36,000  Level Edmonton Center
02:32PM 58.5000 -108.5667 211° Southwest 450 518 36,000  Level Edmonton Center
02:33PM 58.4000 -108.6833 211° Southwest 450 518 36,000  Level Edmonton Center
02:34PM 58.2667 -108.8000 205° Southwest 460 529 36,000  Level Edmonton Center
02:35PM 58.1667 -108.9167 212° Southwest 460 529 36,000  Level Edmonton Center
02:36PM 58.0667 -109.0333 212° Southwest 460 529 36,000  Level Edmonton Center
02:37PM 57.9333 -109.1833 211° Southwest 460 529 36,000  Level Edmonton Center
02:38PM 57.8167 -109.3000 208° Southwest 460 529 36,000  Level Edmonton Center
02:39PM 57.7167 -109.4000 208° Southwest 460 529 36,000  Level Edmonton Center
02:40PM 57.6000 -109.5167 208° Southwest 460 529 36,000  Level Edmonton Center
02:41PM 57.5000 -109.6333 212° Southwest 450 518 36,000  Level Edmonton Center
02:42PM 57.3667 -109.7500 205° Southwest 450 518 36,000  Level Edmonton Center
02:43PM 57.2667 -109.8500 208° Southwest 450 518 36,000  Level Edmonton Center
02:44PM 57.1667 -109.9667 212° Southwest 450 518 36,000  Level Edmonton Center
02:45PM 57.0333 -110.0833 205° Southwest 450 518 36,000  Level Edmonton Center
02:46PM 56.9333 -110.1833 209° Southwest 440 506 36,000  Level Edmonton Center
02:47PM 56.8167 -110.3333 215° Southwest 440 506 36,000  Level Edmonton Center
02:48PM 56.7167 -110.4000 200° South 440 506 36,000  Level Edmonton Center
02:49PM 56.6167 -110.5167 213° Southwest 440 506 36,000  Level Edmonton Center
02:50PM 56.4833 -110.6167 203° Southwest 440 506 36,000  Level Edmonton Center
02:51PM 56.3833 -110.7167 209° Southwest 440 506 36,000  Level Edmonton Center
02:52PM 56.2667 -110.8333 209° Southwest 440 506 36,000  Level Edmonton Center
02:53PM 56.1667 -110.9333 209° Southwest 440 506 36,000  Level Edmonton Center
02:54PM 56.0667 -111.0333 209° Southwest 440 506 36,000  Level Edmonton Center
02:55PM 55.9500 -111.1500 209° Southwest 440 506 36,000  Level Edmonton Center
02:56PM 55.8500 -111.2500 209° Southwest 440 506 36,000  Level Edmonton Center
02:57PM 55.7167 -111.3500 203° Southwest 440 506 36,000  Level Edmonton Center
02:58PM 55.6167 -111.4500 209° Southwest 440 506 36,000  Level Edmonton Center
02:59PM 55.5000 -111.5500 206° Southwest 440 506 36,000  Level Edmonton Center
03:00PM 55.4000 -111.6500 210° Southwest 440 506 36,000  Level Edmonton Center
03:01PM 55.2833 -111.7500 206° Southwest 440 506 36,000  Level Edmonton Center
03:02PM 55.1667 -111.8500 206° Southwest 440 506 36,000  Level Edmonton Center
03:03PM 55.0500 -111.9500 206° Southwest 440 506 36,000  Level Edmonton Center
03:04PM 54.9500 -112.0500 210° Southwest 440 506 36,000 420 Level Edmonton Center
03:07PM 54.6392 -112.4517 216° Southwest 441 507 38,000 300 Climbing FlightAware ADS-B
03:10PM 54.3284 -112.8306 215° Southwest 446 513 38,000  Level FlightAware ADS-B
03:11PM 54.2670 -112.9060 215° Southwest 447 514 38,000  Level FlightAware ADS-B
03:12PM 54.1643 -113.0307 215° Southwest 450 518 38,000  Level FlightAware ADS-B
03:13PM 54.0628 -113.1507 215° Southwest 448 516 38,000  Level FlightAware ADS-B
03:13PM 54.0136 -113.2092 215° Southwest 446 513 38,000  Level FlightAware ADS-B
03:14PM 53.9622 -113.2713 215° Southwest 444 511 38,000  Level FlightAware ADS-B (CYED)
03:14PM 53.9098 -113.3334 215° Southwest 444 511 38,000  Level FlightAware ADS-B
03:15PM 53.8599 -113.3930 215° Southwest 445 512 38,000  Level FlightAware ADS-B
03:15PM 53.8095 -113.4524 215° Southwest 444 511 38,000  Level FlightAware ADS-B
03:16PM 53.7574 -113.5139 215° Southwest 443 510 38,000  Level FlightAware ADS-B
03:16PM 53.7069 -113.5729 215° Southwest 443 510 38,000  Level FlightAware ADS-B
03:17PM 53.6514 -113.6375 215° Southwest 441 507 38,000  Level FlightAware ADS-B (CYED)
03:17PM 53.5998 -113.6982 215° Southwest 442 509 38,000  Level FlightAware ADS-B (CYED)
03:18PM 53.5321 -113.7763 215° Southwest 443 510 38,000  Level FlightAware ADS-B (CYED)
03:19PM 53.4815 -113.8346 215° Southwest 442 509 38,000  Level FlightAware ADS-B (CYED)
03:19PM 53.4298 -113.8929 215° Southwest 436 502 38,000  Level FlightAware ADS-B
03:20PM 53.3783 -113.9532 214° Southwest 445 512 38,000  Level FlightAware ADS-B
03:20PM 53.3513 -113.9843 214° Southwest 444 511 38,000  Level FlightAware ADS-B (CYED)
03:21PM 53.2783 -114.0678 214° Southwest 445 512 38,000  Level FlightAware ADS-B
03:21PM 53.2004 -114.1562 214° Southwest 443 510 38,000  Level FlightAware ADS-B
03:22PM 53.1278 -114.2385 214° Southwest 440 506 38,000  Level FlightAware ADS-B
03:23PM 53.0787 -114.2934 215° Southwest 431 496 38,000  Level FlightAware ADS-B
03:23PM 53.0258 -114.3536 214° Southwest 437 503 38,000  Level FlightAware ADS-B
03:24PM 52.9020 -114.4922 214° Southwest 435 501 38,000  Level FlightAware ADS-B
03:25PM 52.8508 -114.5496 214° Southwest 425 489 38,000  Level FlightAware ADS-B
03:26PM 52.7662 -114.6433 214° Southwest 429 494 38,000  Level FlightAware ADS-B
03:27PM 52.6500 -114.7333 214° Southwest 400 460 38,000  Level Vancouver Center
03:28PM 52.5333 -114.8333 208° Southwest 430 495 38,000  Level Vancouver Center
03:29PM 52.4500 -114.9333 216° Southwest 430 495 38,000  Level Vancouver Center
03:30PM 52.3500 -115.0333 211° Southwest 430 495 38,000  Level Vancouver Center
03:31PM 52.2500 -115.1667 219° Southwest 430 495 38,000  Level Vancouver Center
03:32PM 52.1500 -115.2667 212° Southwest 430 495 38,000  Level Vancouver Center
03:33PM 52.0667 -115.3667 216° Southwest 440 506 38,000  Level Vancouver Center
03:34PM 51.9500 -115.4667 208° Southwest 440 506 38,000  Level Vancouver Center
03:35PM 51.8333 -115.6000 215° Southwest 440 506 38,000  Level Vancouver Center
03:36PM 51.7500 -115.7000 217° Southwest 450 518 38,000  Level Vancouver Center
03:37PM 51.6333 -115.8000 208° Southwest 450 518 38,000  Level Vancouver Center
03:38PM 51.5333 -115.9167 216° Southwest 450 518 38,000  Level Vancouver Center
03:39PM 51.4167 -116.0167 208° Southwest 440 506 38,000  Level Vancouver Center
03:40PM 51.3167 -116.1167 212° Southwest 440 506 38,000  Level Vancouver Center
03:41PM 51.2167 -116.2500 220° Southwest 440 506 38,000  Level Vancouver Center
03:42PM 51.1167 -116.3500 212° Southwest 440 506 38,000  Level Vancouver Center
03:43PM 51.0167 -116.4333 208° Southwest 440 506 38,000  Level Vancouver Center
03:44PM 50.9167 -116.5667 220° Southwest 430 495 38,000  Level Vancouver Center
03:45PM 50.8000 -116.6333 200° South 430 495 38,000  Level Vancouver Center
03:46PM 50.7000 -116.7333 212° Southwest 440 506 38,000  Level Vancouver Center
03:47PM 50.5833 -116.8000 200° South 440 506 38,000  Level Vancouver Center
03:48PM 50.4833 -116.8833 208° Southwest 440 506 38,000  Level Vancouver Center
03:49PM 50.3500 -116.9667 202° Southwest 440 506 38,000  Level Vancouver Center
03:50PM 50.2667 -117.0500 213° Southwest 440 506 38,000  Level Vancouver Center
03:51PM 50.1500 -117.1167 200° South 440 506 38,000  Level Vancouver Center
03:52PM 50.0333 -117.2167 209° Southwest 440 506 38,000  Level Vancouver Center
03:53PM 49.9333 -117.2833 203° Southwest 420 483 38,000  Level Vancouver Center
03:54PM 49.8167 -117.3500 200° South 420 483 38,000  Level Vancouver Center
03:55PM 49.7333 -117.4333 213° Southwest 420 483 38,000  Level Vancouver Center
03:56PM 49.6167 -117.5000 200° South 420 483 38,000  Level Vancouver Center
03:57PM 49.5000 -117.5667 200° South 410 472 38,000  Level Vancouver Center
03:58PM 49.4000 -117.6667 213° Southwest 420 483 38,000  Level Vancouver Center
03:59PM 49.3000 -117.7333 204° Southwest 420 483 38,000  Level Vancouver Center
04:00PM 49.2000 -117.8000 204° Southwest 420 483 38,000  Level Vancouver Center
04:01PM 49.0833 -117.8833 205° Southwest 420 483 38,000  Level Vancouver Center
04:02PM 48.9833 -117.9500 204° Southwest 410 472 38,000  Level Vancouver Center
04:03PM 48.8667 -118.0333 205° Southwest 410 472 38,000  Level Vancouver Center
04:04PM 48.7833 -118.1000 208° Southwest 410 472 38,000  Level Vancouver Center
04:05PM 48.6667 -118.1667 201° Southwest 410 472 38,000  Level Vancouver Center
04:06PM 48.5667 -118.2167 198° South 410 472 38,000  Level Vancouver Center
04:07PM 48.4711 -118.3272 218° Southwest 405 466 38,000  Level Seattle Center
04:08PM 48.3692 -118.3967 204° Southwest 404 465 38,000  Level Seattle Center
04:09PM 48.2672 -118.4639 204° Southwest 403 464 38,000  Level Seattle Center
04:10PM 48.1650 -118.5308 204° Southwest 404 465 38,000  Level Seattle Center
04:11PM 48.0617 -118.5989 204° Southwest 407 468 38,000  Level Seattle Center
04:16PM 47.5772 -118.9140 204° Southwest 396 456 38,000  Level FlightAware ADS-B
04:17PM 47.4917 -118.9690 203° Southwest 395 455 38,000  Level FlightAware ADS-B
04:17PM 47.4392 -119.0020 203° Southwest 397 457 38,000  Level FlightAware ADS-B
04:18PM 47.3862 -119.0350 203° Southwest 396 456 38,000  Level FlightAware ADS-B
04:18PM 47.3232 -119.0760 203° Southwest 395 455 38,000  Level FlightAware ADS-B
04:19PM 47.2724 -119.1080 203° Southwest 397 457 38,000 480 Level FlightAware ADS-B
04:19PM 47.2206 -119.1410 203° Southwest 399 459 38,500 840 Climbing FlightAware ADS-B
04:20PM 47.1566 -119.1810 203° Southwest 404 465 39,000 420 Climbing FlightAware ADS-B
04:20PM 47.1034 -119.2150 203° Southwest 407 468 39,000  Level FlightAware ADS-B
04:21PM 47.0477 -119.2500 203° Southwest 407 468 39,000  Level FlightAware ADS-B
04:21PM 46.9899 -119.2870 203° Southwest 406 467 39,000  Level FlightAware ADS-B
04:22PM 46.9103 -119.3360 203° Southwest 408 470 39,000  Level FlightAware ADS-B
04:23PM 46.8602 -119.3680 203° Southwest 412 474 39,000  Level FlightAware ADS-B
04:23PM 46.8001 -119.4050 203° Southwest 412 474 39,000  Level FlightAware ADS-B
04:25PM 46.6202 -119.5170 1000° North 415 478 39,000  Level FlightAware ADS-B
04:25PM 46.5715 -119.5467 203° Southwest 404 465 39,000  Level FlightAware ADS-B
04:26PM 46.5515 -119.5590 203° Southwest 404 465 39,000  Level FlightAware ADS-B
04:26PM 46.5049 -119.5880 203° Southwest 406 467 39,000  Level FlightAware ADS-B
04:27PM 46.4330 -119.6318 203° Southwest 406 467 39,000  Level FlightAware ADS-B
04:27PM 46.4279 -119.6350 203° Southwest 406 467 39,000  Level FlightAware ADS-B
04:28PM 46.3380 -119.6899 203° Southwest 402 463 39,000  Level FlightAware ADS-B
04:28PM 46.2655 -119.7340 1000° North 410 472 39,000  Level FlightAware ADS-B
04:28PM 46.2840 -119.7230 203° Southwest 395 455 39,000  Level FlightAware ADS-B
04:29PM 46.2050 -119.7711 202° Southwest 398 458 39,000  Level FlightAware ADS-B
04:30PM 46.1237 -119.8108 197° South 402 463 39,000  Level FlightAware ADS-B
04:31PM 46.0426 -119.8463 197° South 395 455 39,000  Level FlightAware ADS-B
04:36PM 45.4620 -120.0993 197° South 404 465 39,000  Level FlightAware ADS-B
04:37PM 45.4019 -120.1250 197° South 405 466 39,000  Level FlightAware ADS-B
04:38PM 45.2276 -120.1986 197° South 405 466 39,000  Level FlightAware ADS-B
04:40PM 45.0922 -120.2549 197° South 405 466 39,000  Level FlightAware ADS-B
04:40PM 45.0390 -120.2775 197° South 405 466 39,000  Level FlightAware ADS-B
04:46PM 44.4527 -120.5194 196° South 393 452 39,000  Level FlightAware ADS-B
04:46PM 44.4018 -120.5406 196° South 391 450 39,000  Level FlightAware ADS-B
04:47PM 44.3250 -120.5717 196° South 392 451 39,000  Level FlightAware ADS-B
04:47PM 44.2511 -120.6013 196° South 392 451 39,000  Level FlightAware ADS-B
04:48PM 44.1812 -120.6303 196° South 394 453 39,000  Level FlightAware ADS-B
04:53PM 43.7171 -120.8163 196° South 398 458 39,000  Level FlightAware ADS-B
04:53PM 43.6437 -120.8459 196° South 400 460 39,000  Level FlightAware ADS-B
04:54PM 43.5384 -120.8874 196° South 400 460 39,000  Level FlightAware ADS-B
04:55PM 43.4780 -120.9113 196° South 402 463 39,000  Level FlightAware ADS-B
04:56PM 43.3986 -120.9424 196° South 403 464 39,000  Level FlightAware ADS-B
04:56PM 43.3444 -120.9636 196° South 403 464 39,000  Level FlightAware ADS-B
04:57PM 43.2142 -121.0150 196° South 403 464 39,000  Level FlightAware ADS-B
04:58PM 43.0827 -121.0660 196° South 401 461 39,000  Level FlightAware ADS-B
05:00PM 42.9514 -121.1178 196° South 407 468 39,000  Level Seattle Center
05:01PM 42.8422 -121.1603 196° South 407 468 39,000  Level Seattle Center
05:02PM 42.7333 -121.2014 196° South 404 465 39,000  Level Seattle Center
05:03PM 42.6236 -121.2433 196° South 409 471 39,000  Level Seattle Center
05:04PM 42.5161 -121.2856 196° South 404 465 39,000  Level Seattle Center
05:05PM 42.4081 -121.3269 196° South 404 465 39,000  Level Seattle Center
05:06PM 42.3008 -121.3683 196° South 399 459 39,000  Level Seattle Center
05:07PM 42.1919 -121.4086 195° South 405 466 39,000  Level Seattle Center
05:08PM 42.0833 -121.4489 195° South 402 463 39,000  Level Seattle Center
05:09PM 41.9753 -121.4919 197° South 402 463 39,000  Level Seattle Center
05:10PM 41.8669 -121.5328 196° South 400 460 39,000  Level Seattle Center
05:11PM 41.7375 -121.5814 196° South 400 460 39,000  Level Seattle Center
05:12PM 41.6308 -121.6211 196° South 396 456 39,000  Level Seattle Center
05:17PM 41.0400 -121.8356 195° South 400 460 39,000  Level FlightAware ADS-B (KAHC)
05:18PM 40.9827 -121.8571 196° South 402 463 39,000  Level FlightAware ADS-B (KAHC)
05:18PM 40.9305 -121.8761 195° South 403 464 39,000  Level FlightAware ADS-B (KAHC)
05:19PM 40.8458 -121.9066 195° South 403 464 39,000  Level FlightAware ADS-B (KAHC)
05:20PM 40.7739 -121.9326 195° South 403 464 39,000  Level FlightAware ADS-B (KAHC)
05:20PM 40.7158 -121.9535 195° South 403 464 39,000  Level FlightAware ADS-B (KAHC)
05:21PM 40.6444 -121.9794 195° South 403 464 39,000  Level FlightAware ADS-B (KAHC)
05:22PM 40.5681 -122.0066 195° South 403 464 39,000  Level FlightAware ADS-B (KAHC)
05:22PM 40.4995 -122.0311 195° South 403 464 39,000  Level FlightAware ADS-B (KAHC)
05:23PM 40.4363 -122.0536 195° South 401 461 39,000  Level FlightAware ADS-B (KAHC)
05:24PM 40.4127 -122.0625 195° South 401 461 39,000  Level FlightAware ADS-B
05:24PM 40.3297 -122.0919 195° South 400 460 39,000  Level FlightAware ADS-B
05:25PM 40.2534 -122.1193 195° South 400 460 39,000  Level FlightAware ADS-B (KAHC)
05:25PM 40.1994 -122.1384 195° South 400 460 39,000  Level FlightAware ADS-B (KAHC)
05:26PM 40.1404 -122.1592 195° South 400 460 39,000  Level FlightAware ADS-B (KAHC)
05:26PM 40.0975 -122.1745 195° South 399 459 39,000  Level FlightAware ADS-B (KAHC)
05:27PM 40.0294 -122.1984 195° South 399 459 39,000  Level FlightAware ADS-B (KAHC)
05:27PM 40.0043 -122.2072 195° South 400 460 39,000  Level FlightAware ADS-B (KAHC)
05:28PM 39.9002 -122.2437 195° South 399 459 39,000  Level FlightAware ADS-B
05:29PM 39.8305 -122.2683 195° South 402 463 39,000  Level FlightAware ADS-B
05:30PM 39.7518 -122.2963 195° South 404 465 39,000  Level FlightAware ADS-B
05:30PM 39.6465 -122.3331 195° South 406 467 39,000  Level FlightAware ADS-B
05:31PM 39.5721 -122.3589 195° South 407 468 39,000 -540 Level FlightAware ADS-B
05:32PM 39.4593 -122.3981 195° South 406 467 38,100 -1,140 Descending FlightAware ADS-B
05:33PM 39.3863 -122.4236 194° South 412 474 37,100 -1,500 Descending FlightAware ADS-B
05:33PM 39.3128 -122.4487 195° South 418 481 36,200 -1,200 Descending FlightAware ADS-B
05:34PM 39.2332 -122.4764 194° South 416 479 35,500 -840 Descending FlightAware ADS-B
05:36PM 39.0949 -122.5241 194° South 410 472 34,600 -720 Descending FlightAware ADS-B
05:36PM 39.0226 -122.5487 194° South 408 470 34,100 -1,080 Descending FlightAware ADS-B
05:37PM 38.9147 -122.5859 194° South 399 459 32,900 -2,100 Descending FlightAware ADS-B
05:38PM 38.8038 -122.6234 194° South 404 465 29,900 -2,700 Descending FlightAware ADS-B
05:39PM 38.7338 -122.6473 194° South 396 456 28,400 -2,100 Descending FlightAware ADS-B
05:41PM 38.5249 -122.7173 191° South 370 426 24,300 -2,160 Descending FlightAware ADS-B
05:42PM 38.4559 -122.7250 178° South 383 441 22,600 -2,400 Descending FlightAware ADS-B
05:43PM 38.3490 -122.7133 174° South 385 443 20,300 -2,280 Descending FlightAware ADS-B
05:43PM 38.2779 -122.7051 175° South 377 434 18,800 -2,100 Descending FlightAware ADS-B
05:44PM 38.2322 -122.7001 175° South 368 423 17,500 -2,400 Descending FlightAware ADS-B
05:45PM 38.1333 -122.6903 175° South 358 412 15,600 -2,520 Descending FlightAware ADS-B
05:45PM 38.0734 -122.6840 175° South 353 406 14,100 -2,160 Descending FlightAware ADS-B
05:46PM 37.9796 -122.6783 177° South 346 398 12,100 -1,860 Descending FlightAware ADS-B
05:47PM 37.9197 -122.6733 169° South 334 384 11,100 -1,020 Descending FlightAware ADS-B
05:48PM 37.8654 -122.6360 140° Southeast 294 338 10,800 -300 Descending FlightAware ADS-B (KHWD)
05:48PM 37.8252 -122.5930 139° Southeast 278 320 10,800  Level FlightAware ADS-B
05:49PM 37.7708 -122.5350 139° Southeast 278 320 10,800  Level FlightAware ADS-B
05:50PM 37.7290 -122.4910 140° Southeast 279 321 10,800  Level FlightAware ADS-B
05:50PM 37.6993 -122.4590 140° Southeast 278 320 10,800  Level FlightAware ADS-B
05:51PM 37.6694 -122.4270 140° Southeast 280 322 10,800  Level FlightAware ADS-B
05:51PM 37.6526 -122.4089 140° Southeast 279 321 10,800  Level FlightAware ADS-B (KHWD)
05:51PM 37.6292 -122.3850 140° Southeast 278 320 10,800 -120 Level FlightAware ADS-B
05:52PM 37.5953 -122.3470 147° Southeast 254 292 10,700 -600 Descending FlightAware ADS-B
05:52PM 37.5982 -122.3491 151° Southeast 250 288 10,400 -1,620 Descending FlightAware ADS-B (KHWD)
05:52PM 37.5718 -122.3300 152° Southeast 249 287 10,100 -1,200 Descending FlightAware ADS-B
05:53PM 37.5634 -122.3248 152° Southeast 249 287 9,900 -1,200 Descending FlightAware ADS-B (KHWD)
05:53PM 37.5563 -122.3200 152° Southeast 247 284 9,800 -1,380 Descending FlightAware ADS-B
05:53PM 37.5406 -122.3090 153° Southeast 247 284 9,400 -1,380 Descending FlightAware ADS-B
05:53PM 37.5253 -122.3000 153° Southeast 243 280 9,100 -1,380 Descending FlightAware ADS-B
05:53PM 37.5087 -122.2890 153° Southeast 241 277 8,700 -1,500 Descending FlightAware ADS-B
05:54PM 37.5047 -122.2864 153° Southeast 240 276 8,600 -1,920 Descending FlightAware ADS-B (KHWD)
05:54PM 37.4928 -122.2790 153° Southeast 238 274 8,200 -1,800 Descending FlightAware ADS-B
05:54PM 37.4856 -122.2740 149° Southeast 238 274 8,000 -1,860 Descending FlightAware ADS-B
05:54PM 37.4810 -122.2700 142° Southeast 239 275 7,800 -2,220 Descending FlightAware ADS-B
05:54PM 37.4767 -122.2640 128° Southeast 243 280 7,600 -1,680 Descending FlightAware ADS-B
05:54PM 37.4738 -122.2580 120° Southeast 245 282 7,500 -1,380 Descending FlightAware ADS-B
05:54PM 37.4718 -122.2530 114° Southeast 247 284 7,400 -2,100 Descending FlightAware ADS-B
05:54PM 37.4653 -122.2310 110° East 244 281 6,800 -2,280 Descending FlightAware ADS-B
05:55PM 37.4599 -122.2130 110° East 241 277 6,300 -2,040 Descending FlightAware ADS-B
05:55PM 37.4550 -122.1960 110° East 239 275 5,900 -1,800 Descending FlightAware ADS-B
05:55PM 37.4488 -122.1750 110° East 238 274 5,400 -1,800 Descending FlightAware ADS-B
05:55PM 37.4429 -122.1560 110° East 237 273 5,000 -1,500 Descending FlightAware ADS-B
05:55PM 37.4412 -122.1490 108° East 237 273 4,900 -1,500 Descending FlightAware ADS-B
05:56PM 37.4402 -122.1451 111° Southeast 238 274 4,800 -2,580 Descending FlightAware ADS-B (KHWD)
05:56PM 37.4395 -122.1400 97° East 241 277 4,600 -2,040 Descending FlightAware ADS-B
05:56PM 37.4395 -122.1310 87° East 243 280 4,500 -1,680 Descending FlightAware ADS-B
05:56PM 37.4441 -122.1150 61° Northeast 247 284 4,100 -1,800 Descending FlightAware ADS-B
05:56PM 37.4467 -122.1100 53° Northeast 247 284 4,000 -1,380 Descending FlightAware ADS-B
05:56PM 37.4502 -122.1050 45° Northeast 247 284 3,900 -600 Descending FlightAware ADS-B
05:56PM 37.4548 -122.1000 35° Northeast 247 284 3,900 -720 Level FlightAware ADS-B
05:56PM 37.4591 -122.0980 25° Northeast 247 284 3,800 -1,200 Descending FlightAware ADS-B
05:56PM 37.4532 -122.1015 23° Northeast 248 285 3,800  Level FlightAware ADS-B (KHWD)
05:56PM 37.4626 -122.0960 19° North 248 285 3,800  Level FlightAware ADS-B
05:56PM 37.4665 -122.0950 10° North 248 285 3,800  Level FlightAware ADS-B
05:56PM 37.4700 -122.0940 North 247 284 3,800  Level FlightAware ADS-B
05:56PM 37.4743 -122.0940 359° North 245 282 3,800  Level FlightAware ADS-B
05:57PM 37.4803 -122.0950 346° North 242 278 3,800 360 Level FlightAware ADS-B
05:57PM 37.4898 -122.1000 332° Northwest 241 277 3,900  Climbing FlightAware ADS-B
05:57PM 37.4967 -122.1060 328° Northwest 241 277 3,800 -540 Descending FlightAware ADS-B
05:57PM 37.5009 -122.1089 327° Northwest 241 277 3,800  Level FlightAware ADS-B (KHWD)
05:57PM 37.5119 -122.1180 327° Northwest 241 277 3,800  Level FlightAware ADS-B
05:57PM 37.5161 -122.1230 319° Northwest 241 277 3,800  Level FlightAware ADS-B
05:57PM 37.5109 -122.1174 326° Northwest 243 280 3,800 -480 Level FlightAware ADS-B (KHWD)
05:57PM 37.5231 -122.1380 286° West 234 269 3,700 -420 Descending FlightAware ADS-B
05:57PM 37.5240 -122.1430 280° West 231 266 3,700 -600 Level FlightAware ADS-B
05:58PM 37.5253 -122.1510 283° West 232 267 3,600 -720 Descending FlightAware ADS-B
05:58PM 37.5264 -122.1550 290° West 234 269 3,600 -780 Level FlightAware ADS-B
05:58PM 37.5286 -122.1610 298° West 234 269 3,500 -1,200 Descending FlightAware ADS-B
05:58PM 37.5340 -122.1730 300° West 225 259 3,300 -1,500 Descending FlightAware ADS-B
05:58PM 37.5372 -122.1800 298° West 223 257 3,100 -1,200 Descending FlightAware ADS-B
05:58PM 37.5411 -122.1900 297° West 217 250 3,000 -840 Descending FlightAware ADS-B
05:58PM 37.5477 -122.2050 298° West 203 234 2,800 -1,140 Descending FlightAware ADS-B
05:59PM 37.5531 -122.2190 297° West 195 224 2,500 -1,500 Descending FlightAware ADS-B
05:59PM 37.5595 -122.2330 298° West 190 219 2,100 -1,920 Descending FlightAware ADS-B
05:59PM 37.5610 -122.2373 298° West 189 217 1,900 -1,620 Descending FlightAware ADS-B (KHWD)
05:59PM 37.5657 -122.2480 298° West 188 216 1,700 -900 Descending FlightAware ADS-B
05:59PM 37.5721 -122.2640 298° West 176 203 1,500 -840 Descending FlightAware ADS-B
06:00PM 37.5770 -122.2750 298° West 158 182 1,300 -840 Descending FlightAware ADS-B
06:00PM 37.5821 -122.2880 298° West 152 175 1,100 -780 Descending FlightAware ADS-B
06:00PM 37.5871 -122.2990 298° West 146 168 900 -840 Descending FlightAware ADS-B
06:00PM 37.5916 -122.3100 298° West 149 171 700 -720 Descending FlightAware ADS-B
06:01PM 37.5983 -122.3260 298° West 153 176 500 -840 Descending FlightAware ADS-B
06:01PM 37.6012 -122.3330 298° West 151 174 300 -900 Descending FlightAware ADS-B
06:01PM 37.6050 -122.3420 297° West 150 173 200 -660 Descending FlightAware ADS-B
06:01PM 37.6072 -122.3470 298° West 148 170 100 -900 Descending FlightAware ADS-B
06:01PM 37.6105 -122.3550 298° West 145 167 -600 Descending FlightAware ADS-B
06:01PM 37.6142 -122.3640 298° West 143 165  Level FlightAware ADS-B